Time;durP1;ratioP1;P1;durP2;ratioP2;P2;SDS_P1;SDS_P2;PMS_P1;PMS_P2;Temp;Humidity;BMP_temperature;BMP_pressure;BME280_temperature;BME280_humidity;BME280_pressure;Samples;Min_cycle;Max_cycle;Signal;HPM_P1;HPM_P2
2023/08/25 00:01:22;;;;;;;13.30;11.90;;;;;;;;;;4388764;32;318844;-90
2023/08/25 00:03:51;;;;;;;16.08;12.85;;;;;;;;;;4390174;32;318611;-93
2023/08/25 00:06:21;;;;;;;15.13;12.50;;;;;;;;;;4375441;32;354765;-84
2023/08/25 00:08:49;;;;;;;16.05;12.30;;;;;;;;;;4387126;32;317665;-91
2023/08/25 00:11:18;;;;;;;13.13;11.83;;;;;;;;;;4379980;32;317906;-90
2023/08/25 00:13:45;;;;;;;13.45;12.05;;;;;;;;;;4387777;32;319028;-84
2023/08/25 00:16:13;;;;;;;19.25;13.13;;;;;;;;;;4376844;32;319308;-85
2023/08/25 00:18:40;;;;;;;17.73;12.70;;;;;;;;;;4387277;32;318886;-86
2023/08/25 00:21:08;;;;;;;13.70;12.13;;;;;;;;;;4383612;32;318948;-88
2023/08/25 00:23:37;;;;;;;16.73;12.50;;;;;;;;;;4387181;32;318748;-86
2023/08/25 00:26:05;;;;;;;15.48;12.30;;;;;;;;;;4388282;32;318895;-87
2023/08/25 00:28:33;;;;;;;15.52;11.93;;;;;;;;;;4375917;32;318862;-86
2023/08/25 00:31:00;;;;;;;13.95;11.73;;;;;;;;;;4388191;32;318845;-86
2023/08/25 00:33:28;;;;;;;14.00;12.57;;;;;;;;;;4377031;32;318139;-90
2023/08/25 00:35:56;;;;;;;18.85;12.75;;;;;;;;;;4387836;32;318691;-90
2023/08/25 00:38:28;;;;;;;17.30;13.30;;;;;;;;;;4376722;32;318912;-91
2023/08/25 00:40:57;;;;;;;17.55;12.75;;;;;;;;;;4387572;32;318527;-90
2023/08/25 00:43:24;;;;;;;19.85;12.98;;;;;;;;;;4377277;32;319051;-91
2023/08/25 00:45:52;;;;;;;13.45;11.77;;;;;;;;;;4388035;32;318812;-88
2023/08/25 00:48:19;;;;;;;19.62;11.60;;;;;;;;;;4376178;32;319008;-88
2023/08/25 00:50:47;;;;;;;18.40;11.70;;;;;;;;;;4386875;32;318723;-89
2023/08/25 00:53:14;;;;;;;16.60;12.15;;;;;;;;;;4377120;32;318707;-88
2023/08/25 00:55:42;;;;;;;13.93;12.52;;;;;;;;;;4386669;32;318633;-89
2023/08/25 00:58:14;;;;;;;19.67;12.68;;;;;;;;;;4377222;32;318652;-92
2023/08/25 01:00:44;;;;;;;24.40;11.15;;;;;;;;;;4387377;32;318773;-87
2023/08/25 01:03:12;;;;;;;21.50;12.10;;;;;;;;;;4375547;32;318834;-87
2023/08/25 01:05:40;;;;;;;21.90;12.32;;;;;;;;;;4386480;32;318725;-87
2023/08/25 01:08:08;;;;;;;20.45;12.15;;;;;;;;;;4387588;32;318808;-87
2023/08/25 01:10:52;;;;;;;17.23;12.27;;;;;;;;;;4374285;32;421555;-86
2023/08/25 01:13:33;;;;;;;19.17;12.55;;;;;;;;;;4376496;32;318752;-88
2023/08/25 01:16:02;;;;;;;16.98;12.88;;;;;;;;;;4385985;32;351285;-84
2023/08/25 01:18:32;;;;;;;20.45;11.32;;;;;;;;;;4377565;32;318749;-84
2023/08/25 01:21:01;;;;;;;14.77;12.18;;;;;;;;;;4386290;32;318902;-84
2023/08/25 01:23:36;;;;;;;14.87;13.30;;;;;;;;;;4377130;32;318760;-84
2023/08/25 01:26:07;;;;;;;14.32;12.88;;;;;;;;;;4385670;32;318959;-84
2023/08/25 01:28:34;;;;;;;18.35;12.63;;;;;;;;;;4373170;32;417742;-83
2023/08/25 01:31:04;;;;;;;17.17;12.10;;;;;;;;;;4386992;32;319077;-84
2023/08/25 01:33:31;;;;;;;14.32;12.43;;;;;;;;;;4377477;32;319032;-85
2023/08/25 01:36:08;;;;;;;14.10;11.40;;;;;;;;;;4385945;32;318718;-84
2023/08/25 01:38:43;;;;;;;12.98;11.68;;;;;;;;;;4373800;32;418246;-84
2023/08/25 01:41:18;;;;;;;19.67;12.15;;;;;;;;;;4375638;32;318818;-84
2023/08/25 01:43:49;;;;;;;16.05;11.52;;;;;;;;;;4386751;32;318863;-84
2023/08/25 01:46:18;;;;;;;18.45;11.85;;;;;;;;;;4376711;32;319027;-84
2023/08/25 01:48:49;;;;;;;17.48;11.05;;;;;;;;;;4386288;32;319184;-83
2023/08/25 01:51:18;;;;;;;16.05;12.65;;;;;;;;;;4373949;32;318876;-84
2023/08/25 01:53:48;;;;;;;24.65;12.70;;;;;;;;;;4385532;32;319014;-84
2023/08/25 01:56:17;;;;;;;24.42;12.20;;;;;;;;;;4376843;32;319072;-84
2023/08/25 01:58:44;;;;;;;17.77;11.90;;;;;;;;;;4386435;32;319210;-83
2023/08/25 02:01:11;;;;;;;17.42;12.15;;;;;;;;;;4376615;32;318837;-84
2023/08/25 02:03:39;;;;;;;14.70;11.35;;;;;;;;;;4385601;32;318949;-84
2023/08/25 02:06:06;;;;;;;14.80;12.00;;;;;;;;;;4385541;32;318609;-86
2023/08/25 02:08:33;;;;;;;11.57;10.45;;;;;;;;;;4376487;32;319307;-84
2023/08/25 02:11:01;;;;;;;14.18;12.32;;;;;;;;;;4385665;32;318650;-84
2023/08/25 02:13:30;;;;;;;13.38;11.95;;;;;;;;;;4375823;32;318878;-84
2023/08/25 02:15:57;;;;;;;18.42;12.02;;;;;;;;;;4386836;32;318751;-85
2023/08/25 02:18:24;;;;;;;13.27;11.52;;;;;;;;;;4376101;32;318738;-84
2023/08/25 02:20:52;;;;;;;17.95;12.35;;;;;;;;;;4385571;32;318955;-85
2023/08/25 02:23:19;;;;;;;22.13;19.35;;;;;;;;;;4375670;32;318829;-85
2023/08/25 02:25:46;;;;;;;21.52;15.40;;;;;;;;;;4386652;32;318674;-86
2023/08/25 02:28:14;;;;;;;17.48;12.50;;;;;;;;;;4374749;32;318681;-85
2023/08/25 02:30:43;;;;;;;15.65;13.15;;;;;;;;;;4386581;32;318771;-87
2023/08/25 02:33:10;;;;;;;15.77;12.15;;;;;;;;;;4376477;32;318888;-91
2023/08/25 02:35:38;;;;;;;14.82;13.40;;;;;;;;;;4384792;32;318732;-91
2023/08/25 02:38:12;;;;;;;20.73;13.85;;;;;;;;;;4386662;32;318906;-86
2023/08/25 02:40:39;;;;;;;15.35;13.75;;;;;;;;;;4373683;32;418010;-91
2023/08/25 02:43:08;;;;;;;18.87;13.30;;;;;;;;;;4386089;32;318871;-92
2023/08/25 02:45:36;;;;;;;20.80;13.07;;;;;;;;;;4372368;32;418505;-92
2023/08/25 02:48:06;;;;;;;19.37;14.23;;;;;;;;;;4385767;32;318724;-90
2023/08/25 02:50:34;;;;;;;18.83;13.98;;;;;;;;;;4373029;32;418889;-85
2023/08/25 02:53:02;;;;;;;14.82;12.80;;;;;;;;;;4383801;32;319073;-85
2023/08/25 02:55:29;;;;;;;15.93;12.75;;;;;;;;;;4376280;32;318520;-86
2023/08/25 02:57:57;;;;;;;15.88;13.68;;;;;;;;;;4384350;32;318958;-85
2023/08/25 03:00:24;;;;;;;14.15;12.45;;;;;;;;;;4374396;32;319042;-85
2023/08/25 03:02:52;;;;;;;16.52;12.63;;;;;;;;;;4383491;32;318637;-86
2023/08/25 03:05:21;;;;;;;13.85;11.60;;;;;;;;;;4375348;32;318780;-85
2023/08/25 03:07:52;;;;;;;15.70;12.10;;;;;;;;;;4383689;32;318724;-86
2023/08/25 03:10:19;;;;;;;15.60;12.55;;;;;;;;;;4376131;32;318710;-85
2023/08/25 03:12:47;;;;;;;18.95;14.60;;;;;;;;;;4385445;32;318678;-85
2023/08/25 03:15:14;;;;;;;22.83;13.43;;;;;;;;;;4374644;32;318697;-88
2023/08/25 03:17:42;;;;;;;14.02;12.50;;;;;;;;;;4386299;32;319008;-85
2023/08/25 03:20:10;;;;;;;16.30;13.18;;;;;;;;;;4376144;32;318673;-86
2023/08/25 03:22:39;;;;;;;18.35;14.65;;;;;;;;;;4385791;32;318941;-86
2023/08/25 03:25:07;;;;;;;16.08;14.35;;;;;;;;;;4385915;32;317839;-86
2023/08/25 03:27:36;;;;;;;17.75;14.25;;;;;;;;;;4370432;32;418462;-87
2023/08/25 03:30:06;;;;;;;16.23;14.43;;;;;;;;;;4384493;32;320566;-83
2023/08/25 03:32:33;;;;;;;18.23;14.35;;;;;;;;;;4373185;32;417535;-83
2023/08/25 03:35:02;;;;;;;19.12;13.27;;;;;;;;;;4383191;32;318897;-88
2023/08/25 03:37:30;;;;;;;17.33;14.70;;;;;;;;;;4369272;32;318771;-87
2023/08/25 03:40:00;;;;;;;15.75;13.88;;;;;;;;;;4394889;32;318631;-84
2023/08/25 03:42:28;;;;;;;15.35;13.68;;;;;;;;;;4374635;32;319167;-83
2023/08/25 03:44:55;;;;;;;16.40;14.05;;;;;;;;;;4384290;32;317623;-84
2023/08/25 03:47:23;;;;;;;26.02;15.75;;;;;;;;;;4374423;32;318830;-84
2023/08/25 03:49:50;;;;;;;18.30;13.48;;;;;;;;;;4384592;32;319097;-86
2023/08/25 03:52:18;;;;;;;20.80;17.92;;;;;;;;;;4373303;32;335050;-86
2023/08/25 03:54:45;;;;;;;19.75;17.00;;;;;;;;;;4385668;32;318802;-90
2023/08/25 03:57:14;;;;;;;24.45;15.18;;;;;;;;;;4370758;32;321521;-92
2023/08/25 03:59:41;;;;;;;26.23;15.02;;;;;;;;;;4385978;32;319008;-86
2023/08/25 04:02:09;;;;;;;21.25;14.90;;;;;;;;;;4374841;32;318455;-87
2023/08/25 04:04:37;;;;;;;19.92;15.27;;;;;;;;;;4386159;32;319022;-85
2023/08/25 04:07:04;;;;;;;16.70;14.70;;;;;;;;;;4385078;32;318789;-88
2023/08/25 04:09:32;;;;;;;17.83;14.63;;;;;;;;;;4374357;32;318833;-85
2023/08/25 04:12:00;;;;;;;16.90;14.40;;;;;;;;;;4385171;32;330186;-85
2023/08/25 04:14:29;;;;;;;19.17;14.68;;;;;;;;;;4375978;32;319179;-87
2023/08/25 04:16:56;;;;;;;18.40;14.57;;;;;;;;;;4387637;32;318732;-86
2023/08/25 04:19:24;;;;;;;17.15;15.43;;;;;;;;;;4379227;32;318757;-83
2023/08/25 04:21:52;;;;;;;17.02;14.38;;;;;;;;;;4388707;32;318829;-83
2023/08/25 04:24:19;;;;;;;20.67;16.50;;;;;;;;;;4376625;32;357684;-85
2023/08/25 04:26:47;;;;;;;20.40;16.10;;;;;;;;;;4387009;32;335731;-87
2023/08/25 04:29:14;;;;;;;24.02;16.10;;;;;;;;;;4378172;32;318986;-85
2023/08/25 04:31:43;;;;;;;23.87;15.85;;;;;;;;;;4386877;32;318633;-83
2023/08/25 04:34:11;;;;;;;21.67;16.90;;;;;;;;;;4373978;32;330254;-83
2023/08/25 04:36:39;;;;;;;23.27;16.08;;;;;;;;;;4387675;32;318671;-83
2023/08/25 04:39:07;;;;;;;17.73;15.27;;;;;;;;;;4387870;32;318844;-89
2023/08/25 04:41:36;;;;;;;23.33;14.30;;;;;;;;;;4371539;32;418898;-83
2023/08/25 04:44:05;;;;;;;17.48;14.98;;;;;;;;;;4384646;32;318898;-92
2023/08/25 04:46:32;;;;;;;14.48;11.98;;;;;;;;;;4374848;32;319009;-91
2023/08/25 04:49:02;;;;;;;25.95;12.95;;;;;;;;;;4387849;32;318838;-91
2023/08/25 04:51:30;;;;;;;21.35;14.18;;;;;;;;;;4376330;32;319313;-88
2023/08/25 04:53:57;;;;;;;16.58;12.95;;;;;;;;;;4386456;32;318736;-89
2023/08/25 04:56:29;;;;;;;15.52;12.27;;;;;;;;;;4377402;32;318824;-93
2023/08/25 04:58:57;;;;;;;18.48;12.35;;;;;;;;;;4387454;32;318723;-91
2023/08/25 05:01:25;;;;;;;14.20;12.63;;;;;;;;;;4375855;32;319097;-84
2023/08/25 05:03:58;;;;;;;15.10;12.82;;;;;;;;;;4387527;32;318841;-83
2023/08/25 05:06:27;;;;;;;18.00;11.85;;;;;;;;;;4375984;32;319092;-84
2023/08/25 05:08:56;;;;;;;20.42;13.02;;;;;;;;;;4386026;32;319247;-84
2023/08/25 05:11:24;;;;;;;18.12;12.23;;;;;;;;;;4376500;32;318739;-84
2023/08/25 05:13:51;;;;;;;16.05;12.77;;;;;;;;;;4386756;32;318905;-84
2023/08/25 05:16:19;;;;;;;21.05;12.52;;;;;;;;;;4377094;32;319124;-84
2023/08/25 05:18:46;;;;;;;22.33;12.70;;;;;;;;;;4386207;32;319189;-83
2023/08/25 05:21:15;;;;;;;16.05;12.75;;;;;;;;;;4376830;32;319207;-84
2023/08/25 05:23:48;;;;;;;19.45;15.02;;;;;;;;;;4386457;32;345198;-83
2023/08/25 05:26:16;;;;;;;14.07;12.77;;;;;;;;;;4375707;32;318985;-84
2023/08/25 05:28:44;;;;;;;14.23;12.32;;;;;;;;;;4386324;32;319068;-84
2023/08/25 05:31:14;;;;;;;15.77;13.48;;;;;;;;;;4376351;32;319163;-84
2023/08/25 05:33:41;;;;;;;19.90;14.43;;;;;;;;;;4387012;32;319110;-84
2023/08/25 05:36:10;;;;;;;17.77;14.13;;;;;;;;;;4376955;32;319283;-85
2023/08/25 05:38:40;;;;;;;19.33;13.57;;;;;;;;;;4390412;32;318583;-84
2023/08/25 05:41:12;;;;;;;17.73;14.82;;;;;;;;;;4388749;32;319074;-83
2023/08/25 05:43:45;;;;;;;18.30;15.55;;;;;;;;;;4375482;32;417968;-82
2023/08/25 05:46:13;;;;;;;19.30;13.20;;;;;;;;;;4377665;32;319177;-82
2023/08/25 05:48:40;;;;;;;15.20;12.85;;;;;;;;;;4387082;32;319126;-86
2023/08/25 05:51:08;;;;;;;14.70;13.23;;;;;;;;;;4387578;32;318883;-86
2023/08/25 05:53:35;;;;;;;19.02;13.52;;;;;;;;;;4372676;32;418185;-87
2023/08/25 05:56:02;;;;;;;18.62;14.38;;;;;;;;;;4387463;32;319255;-86
2023/08/25 05:58:31;;;;;;;24.48;14.55;;;;;;;;;;4376959;32;318765;-87
2023/08/25 06:00:58;;;;;;;19.25;15.15;;;;;;;;;;4387299;32;319111;-89
2023/08/25 06:03:26;;;;;;;16.30;13.62;;;;;;;;;;4377147;32;319088;-86
2023/08/25 06:05:54;;;;;;;16.65;14.73;;;;;;;;;;4384779;32;318780;-86
2023/08/25 06:08:21;;;;;;;15.57;14.05;;;;;;;;;;4375221;32;319204;-85
2023/08/25 06:10:51;;;;;;;22.58;14.95;;;;;;;;;;4386744;32;319696;-84
2023/08/25 06:13:19;;;;;;;17.58;14.32;;;;;;;;;;4376109;32;334562;-85
2023/08/25 06:15:48;;;;;;;18.70;14.23;;;;;;;;;;4386808;32;318917;-85
2023/08/25 06:18:16;;;;;;;15.93;13.25;;;;;;;;;;4375924;32;318862;-87
2023/08/25 06:20:44;;;;;;;23.40;11.12;;;;;;;;;;4386544;32;318729;-86
2023/08/25 06:23:14;;;;;;;16.45;13.32;;;;;;;;;;4376663;32;318792;-84
2023/08/25 06:25:42;;;;;;;13.62;12.10;;;;;;;;;;4386211;32;319055;-84
2023/08/25 06:28:09;;;;;;;21.83;12.60;;;;;;;;;;4374260;32;319021;-86
2023/08/25 06:30:37;;;;;;;15.65;12.85;;;;;;;;;;4386351;32;319022;-85
2023/08/25 06:33:06;;;;;;;21.05;14.20;;;;;;;;;;4384016;32;318972;-85
2023/08/25 06:35:34;;;;;;;17.60;13.75;;;;;;;;;;4372987;32;418460;-88
2023/08/25 06:38:03;;;;;;;21.02;14.20;;;;;;;;;;4385616;32;318805;-86
2023/08/25 06:40:31;;;;;;;17.75;14.23;;;;;;;;;;4374845;32;319192;-87
2023/08/25 06:42:58;;;;;;;18.80;14.15;;;;;;;;;;4384133;32;318991;-81
2023/08/25 06:45:25;;;;;;;17.62;14.23;;;;;;;;;;4375898;32;318940;-84
2023/08/25 06:47:53;;;;;;;19.77;13.75;;;;;;;;;;4385969;32;318876;-84
2023/08/25 06:50:23;;;;;;;20.20;14.52;;;;;;;;;;4376049;32;318805;-87
2023/08/25 06:52:51;;;;;;;15.93;14.25;;;;;;;;;;4385644;32;318872;-87
2023/08/25 06:55:19;;;;;;;18.12;14.18;;;;;;;;;;4374971;32;319014;-87
2023/08/25 06:57:46;;;;;;;16.62;14.85;;;;;;;;;;4383844;32;318906;-86
2023/08/25 07:00:14;;;;;;;25.65;15.10;;;;;;;;;;4376347;32;319211;-86
2023/08/25 07:02:43;;;;;;;23.50;15.00;;;;;;;;;;4386110;32;319141;-87
2023/08/25 07:05:11;;;;;;;26.35;14.43;;;;;;;;;;4373205;32;319383;-88
2023/08/25 07:07:42;;;;;;;22.02;16.52;;;;;;;;;;4385676;32;319012;-88
2023/08/25 07:10:10;;;;;;;18.48;16.48;;;;;;;;;;4372219;32;319058;-88
2023/08/25 07:12:37;;;;;;;17.98;16.17;;;;;;;;;;4386083;32;318909;-88
2023/08/25 07:15:05;;;;;;;22.20;15.75;;;;;;;;;;4385895;32;318820;-89
2023/08/25 07:17:33;;;;;;;19.33;15.45;;;;;;;;;;4374103;32;319137;-88
2023/08/25 07:20:01;;;;;;;25.48;14.93;;;;;;;;;;4386504;32;318836;-88
2023/08/25 07:22:28;;;;;;;20.08;17.42;;;;;;;;;;4375978;32;318625;-88
2023/08/25 07:24:58;;;;;;;17.25;15.50;;;;;;;;;;4385117;32;318744;-88
2023/08/25 07:27:26;;;;;;;17.77;16.08;;;;;;;;;;4373764;32;319423;-88
2023/08/25 07:29:54;;;;;;;17.65;15.68;;;;;;;;;;4385356;32;319291;-89
2023/08/25 07:32:21;;;;;;;17.50;14.73;;;;;;;;;;4375228;32;319202;-88
2023/08/25 07:34:48;;;;;;;17.37;15.43;;;;;;;;;;4385194;32;319454;-89
2023/08/25 07:37:16;;;;;;;22.92;15.50;;;;;;;;;;4375986;32;318843;-88
2023/08/25 07:39:43;;;;;;;18.10;15.63;;;;;;;;;;4384052;32;351247;-88
2023/08/25 07:42:12;;;;;;;20.02;16.15;;;;;;;;;;4375934;32;318752;-88
2023/08/25 07:44:39;;;;;;;16.85;14.45;;;;;;;;;;4385888;32;319265;-89
2023/08/25 07:47:10;;;;;;;21.15;15.20;;;;;;;;;;4385332;32;318732;-86
2023/08/25 07:49:38;;;;;;;16.42;13.68;;;;;;;;;;4375086;32;388850;-85
2023/08/25 07:52:05;;;;;;;16.37;14.48;;;;;;;;;;4387345;32;340603;-84
2023/08/25 07:54:32;;;;;;;20.33;14.57;;;;;;;;;;4378809;32;319206;-83
2023/08/25 07:57:01;;;;;;;25.65;15.73;;;;;;;;;;4388768;32;319150;-82
2023/08/25 07:59:29;;;;;;;17.77;15.88;;;;;;;;;;4378261;32;318902;-85
2023/08/25 08:01:57;;;;;;;18.00;16.17;;;;;;;;;;4388358;32;318914;-82
2023/08/25 08:04:24;;;;;;;17.58;15.05;;;;;;;;;;4377481;32;318588;-84
2023/08/25 08:06:51;;;;;;;19.05;15.88;;;;;;;;;;4387741;32;318792;-85
2023/08/25 08:09:19;;;;;;;15.55;13.73;;;;;;;;;;4377863;32;319011;-82
2023/08/25 08:11:57;;;;;;;17.15;14.35;;;;;;;;;;4387131;32;318747;-84
2023/08/25 08:14:26;;;;;;;16.85;13.98;;;;;;;;;;4375319;32;318917;-82
2023/08/25 08:16:56;;;;;;;16.40;13.95;;;;;;;;;;4387833;32;318796;-82
2023/08/25 08:19:24;;;;;;;22.70;14.77;;;;;;;;;;4375205;32;318975;-82
2023/08/25 08:21:51;;;;;;;16.67;13.48;;;;;;;;;;4386676;32;318635;-86
2023/08/25 08:24:19;;;;;;;20.85;13.48;;;;;;;;;;4376775;32;318808;-83
2023/08/25 08:26:46;;;;;;;19.98;15.10;;;;;;;;;;4387378;32;318716;-82
2023/08/25 08:29:14;;;;;;;14.40;12.98;;;;;;;;;;4377646;32;318860;-83
2023/08/25 08:31:41;;;;;;;17.30;12.98;;;;;;;;;;4387858;32;319077;-82
2023/08/25 08:34:11;;;;;;;15.52;12.25;;;;;;;;;;4376747;32;318978;-83
2023/08/25 08:36:39;;;;;;;13.85;12.45;;;;;;;;;;4386487;32;318777;-82
2023/08/25 08:39:07;;;;;;;19.95;13.27;;;;;;;;;;4386679;32;319113;-82
2023/08/25 08:41:35;;;;;;;13.02;11.73;;;;;;;;;;4374033;32;418466;-82
2023/08/25 08:44:06;;;;;;;15.45;11.27;;;;;;;;;;4386094;32;318460;-82
2023/08/25 08:46:38;;;;;;;11.73;10.45;;;;;;;;;;4373582;32;418269;-82
2023/08/25 08:49:05;;;;;;;18.92;11.77;;;;;;;;;;4387259;32;319042;-82
2023/08/25 08:51:35;;;;;;;15.02;10.68;;;;;;;;;;4377905;32;318795;-82
2023/08/25 08:54:06;;;;;;;9.40;8.32;;;;;;;;;;4386800;32;318864;-82
2023/08/25 08:56:34;;;;;;;9.25;8.25;;;;;;;;;;4377112;32;316909;-82
2023/08/25 08:59:02;;;;;;;11.73;8.50;;;;;;;;;;4387628;32;317043;-82
2023/08/25 09:01:35;;;;;;;9.32;7.90;;;;;;;;;;4376957;32;317569;-82
2023/08/25 09:04:06;;;;;;;16.73;8.05;;;;;;;;;;4386363;32;316835;-82
2023/08/25 09:06:36;;;;;;;14.25;7.93;;;;;;;;;;4382574;32;317619;-82
2023/08/25 09:09:05;;;;;;;15.02;7.62;;;;;;;;;;4386456;32;317812;-82
2023/08/25 09:11:32;;;;;;;9.30;6.87;;;;;;;;;;4375920;32;318281;-82
2023/08/25 09:14:04;;;;;;;10.85;7.12;;;;;;;;;;4387086;32;316897;-82
2023/08/25 09:16:33;;;;;;;8.40;6.45;;;;;;;;;;4377123;32;317629;-83
2023/08/25 09:19:02;;;;;;;9.13;7.25;;;;;;;;;;4387119;32;316760;-82
2023/08/25 09:21:30;;;;;;;7.68;6.55;;;;;;;;;;4377932;32;315536;-87
2023/08/25 09:24:00;;;;;;;10.73;7.03;;;;;;;;;;4387906;32;315728;-79
2023/08/25 09:26:29;;;;;;;8.70;6.93;;;;;;;;;;4377614;32;317862;-79
2023/08/25 09:28:59;;;;;;;14.35;6.50;;;;;;;;;;4387767;32;316857;-79
2023/08/25 09:31:28;;;;;;;7.82;6.62;;;;;;;;;;4376615;32;317727;-79
2023/08/25 09:34:01;;;;;;;7.10;6.40;;;;;;;;;;4385259;32;317800;-79
2023/08/25 09:36:29;;;;;;;11.60;6.35;;;;;;;;;;4376102;32;316726;-80
2023/08/25 09:38:56;;;;;;;18.92;7.35;;;;;;;;;;4385275;32;339726;-79
2023/08/25 09:41:26;;;;;;;13.18;6.95;;;;;;;;;;4377205;32;317072;-80
2023/08/25 09:43:58;;;;;;;10.00;7.12;;;;;;;;;;4386379;32;318165;-80
2023/08/25 09:46:29;;;;;;;15.80;6.85;;;;;;;;;;4376206;32;316762;-80
2023/08/25 09:49:02;;;;;;;10.43;5.22;;;;;;;;;;4386137;32;317794;-80
2023/08/25 09:51:37;;;;;;;9.35;6.57;;;;;;;;;;4375338;32;317825;-80
2023/08/25 09:54:08;;;;;;;16.92;6.40;;;;;;;;;;4386995;32;316050;-80
2023/08/25 09:56:39;;;;;;;7.25;5.72;;;;;;;;;;4371254;32;416969;-79
2023/08/25 09:59:07;;;;;;;7.35;5.47;;;;;;;;;;4386724;32;315752;-82
2023/08/25 10:01:36;;;;;;;8.45;5.43;;;;;;;;;;4373508;32;416260;-81
2023/08/25 10:04:04;;;;;;;6.47;5.35;;;;;;;;;;4386378;32;316952;-82
2023/08/25 10:06:33;;;;;;;7.45;5.05;;;;;;;;;;4375808;32;316812;-80
2023/08/25 10:09:01;;;;;;;7.07;5.07;;;;;;;;;;4384314;32;316773;-80
2023/08/25 10:11:30;;;;;;;7.00;5.03;;;;;;;;;;4373925;32;316649;-85
2023/08/25 10:14:07;;;;;;;8.32;5.50;;;;;;;;;;4385433;32;316733;-83
2023/08/25 10:16:40;;;;;;;7.12;5.50;;;;;;;;;;4371590;32;415999;-81
2023/08/25 10:19:13;;;;;;;8.35;5.35;;;;;;;;;;4385170;32;316690;-81
2023/08/25 10:21:44;;;;;;;9.52;5.20;;;;;;;;;;4370452;32;415830;-81
2023/08/25 10:24:14;;;;;;;12.02;5.82;;;;;;;;;;4375995;32;316948;-80
2023/08/25 10:26:42;;;;;;;8.13;5.50;;;;;;;;;;4384340;32;317974;-83
2023/08/25 10:29:13;;;;;;;10.48;4.80;;;;;;;;;;4376260;32;316905;-81
2023/08/25 10:31:46;;;;;;;9.57;4.05;;;;;;;;;;4385458;32;317813;-79
2023/08/25 10:34:32;;;;;;;8.00;4.93;;;;;;;;;;4375339;32;316944;-80
2023/08/25 10:37:05;;;;;;;8.68;4.57;;;;;;;;;;4385870;32;316491;-79
2023/08/25 10:39:49;;;;;;;7.37;4.53;;;;;;;;;;4374108;32;342280;-80
2023/08/25 10:42:20;;;;;;;6.43;3.42;;;;;;;;;;4373071;32;316798;-80
2023/08/25 10:44:54;;;;;;;11.05;3.67;;;;;;;;;;4386559;32;317150;-83
2023/08/25 10:47:23;;;;;;;6.35;3.90;;;;;;;;;;4374827;32;318021;-82
2023/08/25 10:49:55;;;;;;;5.05;4.15;;;;;;;;;;4385874;32;316535;-83
2023/08/25 10:52:23;;;;;;;8.75;4.53;;;;;;;;;;4374065;32;316616;-83
2023/08/25 10:54:52;;;;;;;6.97;3.70;;;;;;;;;;4385851;32;317002;-83
2023/08/25 10:57:21;;;;;;;7.22;4.47;;;;;;;;;;4376333;32;316870;-83
2023/08/25 10:59:57;;;;;;;8.50;4.57;;;;;;;;;;4384368;32;316694;-83
2023/08/25 11:02:35;;;;;;;8.60;4.75;;;;;;;;;;4374230;32;316770;-83
2023/08/25 11:05:36;;;;;;;7.40;4.95;;;;;;;;;;4385276;32;316913;-84
2023/08/25 11:08:05;;;;;;;12.18;5.30;;;;;;;;;;4372876;32;417594;-86
2023/08/25 11:10:34;;;;;;;6.72;4.93;;;;;;;;;;4376188;32;317835;-87
2023/08/25 11:13:07;;;;;;;8.00;5.20;;;;;;;;;;4386713;32;316633;-88
2023/08/25 11:15:38;;;;;;;10.15;5.32;;;;;;;;;;4374101;32;387129;-83
2023/08/25 11:18:07;;;;;;;9.23;4.87;;;;;;;;;;4384606;32;317668;-84
2023/08/25 11:20:34;;;;;;;6.70;4.97;;;;;;;;;;4373377;32;416401;-84
2023/08/25 11:23:01;;;;;;;6.95;5.70;;;;;;;;;;4385580;32;351757;-84
2023/08/25 11:25:29;;;;;;;6.78;5.35;;;;;;;;;;4378930;32;316849;-84
2023/08/25 11:27:57;;;;;;;8.65;5.05;;;;;;;;;;4388145;32;316684;-84
2023/08/25 11:30:25;;;;;;;9.07;4.87;;;;;;;;;;4378229;32;316548;-84
2023/08/25 11:32:54;;;;;;;7.10;5.35;;;;;;;;;;4389186;32;316742;-83
2023/08/25 11:35:21;;;;;;;7.72;5.50;;;;;;;;;;4378956;32;316791;-84
2023/08/25 11:37:49;;;;;;;8.10;5.12;;;;;;;;;;4387301;32;348491;-84
2023/08/25 11:40:19;;;;;;;8.65;5.47;;;;;;;;;;4379361;32;316887;-83
2023/08/25 11:42:47;;;;;;;14.02;5.00;;;;;;;;;;4388289;32;316651;-83
2023/08/25 11:45:15;;;;;;;9.23;4.93;;;;;;;;;;4377021;32;317729;-83
2023/08/25 11:47:42;;;;;;;7.60;5.07;;;;;;;;;;4388951;32;316631;-83
2023/08/25 11:50:12;;;;;;;9.95;4.55;;;;;;;;;;4374740;32;316853;-83
2023/08/25 11:52:40;;;;;;;7.07;4.93;;;;;;;;;;4389829;32;316884;-83
2023/08/25 11:55:14;;;;;;;8.77;3.95;;;;;;;;;;4389859;32;316843;-83
2023/08/25 11:57:42;;;;;;;9.45;4.82;;;;;;;;;;4374785;32;416136;-83
2023/08/25 12:00:10;;;;;;;10.35;4.62;;;;;;;;;;4377958;32;316764;-84
2023/08/25 12:02:38;;;;;;;10.90;4.97;;;;;;;;;;4381875;32;316831;-83
2023/08/25 12:05:06;;;;;;;8.52;4.93;;;;;;;;;;4396903;32;317778;-83
2023/08/25 12:07:37;;;;;;;5.43;4.25;;;;;;;;;;4378792;32;315387;-83
2023/08/25 12:10:06;;;;;;;10.10;4.55;;;;;;;;;;4386259;32;316859;-83
2023/08/25 12:12:37;;;;;;;6.68;4.28;;;;;;;;;;4378469;32;317766;-83
2023/08/25 12:15:08;;;;;;;9.73;5.00;;;;;;;;;;4386237;32;317060;-83
2023/08/25 12:17:37;;;;;;;11.15;4.15;;;;;;;;;;4374207;32;416135;-81
2023/08/25 12:20:13;;;;;;;12.20;4.85;;;;;;;;;;4386253;32;318001;-80
2023/08/25 12:22:54;;;;;;;7.93;4.75;;;;;;;;;;4373894;32;420054;-81
2023/08/25 12:25:22;;;;;;;8.50;4.80;;;;;;;;;;4377723;32;316874;-81
2023/08/25 12:27:50;;;;;;;8.05;4.50;;;;;;;;;;4386674;32;316738;-81
2023/08/25 12:30:18;;;;;;;7.10;4.60;;;;;;;;;;4376211;32;315716;-81
2023/08/25 12:32:45;;;;;;;14.48;5.40;;;;;;;;;;4387609;32;316559;-84
2023/08/25 12:35:12;;;;;;;8.48;5.28;;;;;;;;;;4371328;32;317824;-85
2023/08/25 12:37:40;;;;;;;5.97;4.75;;;;;;;;;;4386790;32;316694;-87
2023/08/25 12:40:09;;;;;;;11.45;5.43;;;;;;;;;;4388400;32;317020;-84
2023/08/25 12:42:37;;;;;;;6.85;5.07;;;;;;;;;;4369996;32;417262;-87
2023/08/25 12:45:05;;;;;;;9.85;5.62;;;;;;;;;;4387457;32;316855;-86
2023/08/25 12:47:32;;;;;;;10.45;5.25;;;;;;;;;;4377465;32;316679;-88
2023/08/25 12:50:00;;;;;;;7.72;5.10;;;;;;;;;;4387711;32;316925;-87
2023/08/25 12:52:31;;;;;;;11.35;4.75;;;;;;;;;;4375338;32;330137;-82
2023/08/25 12:54:59;;;;;;;6.57;4.90;;;;;;;;;;4386914;32;317659;-82
2023/08/25 12:57:27;;;;;;;8.98;4.97;;;;;;;;;;4376987;32;316617;-82
2023/08/25 12:59:55;;;;;;;5.40;4.45;;;;;;;;;;4386831;32;316805;-82
2023/08/25 13:02:23;;;;;;;5.93;4.60;;;;;;;;;;4376581;32;316676;-82
2023/08/25 13:04:52;;;;;;;10.02;4.57;;;;;;;;;;4387004;32;316971;-81
2023/08/25 13:07:20;;;;;;;8.10;4.32;;;;;;;;;;4375326;32;317912;-87
2023/08/25 13:09:47;;;;;;;11.27;4.47;;;;;;;;;;4388037;32;316741;-87
2023/08/25 13:12:15;;;;;;;8.90;4.22;;;;;;;;;;4374471;32;317959;-86
2023/08/25 13:14:44;;;;;;;5.97;4.20;;;;;;;;;;4386191;32;316964;-84
2023/08/25 13:17:12;;;;;;;22.08;4.37;;;;;;;;;;4375584;32;316738;-87
2023/08/25 13:19:39;;;;;;;10.68;5.12;;;;;;;;;;4387654;32;317848;-85
2023/08/25 13:22:07;;;;;;;6.80;4.85;;;;;;;;;;4386059;32;317727;-85
2023/08/25 13:24:35;;;;;;;6.90;4.47;;;;;;;;;;4373876;32;416657;-85
2023/08/25 13:27:03;;;;;;;12.07;5.10;;;;;;;;;;4387108;32;316778;-83
2023/08/25 13:29:33;;;;;;;9.15;5.00;;;;;;;;;;4375217;32;318061;-79
2023/08/25 13:32:02;;;;;;;8.10;4.15;;;;;;;;;;4386754;32;316997;-82
2023/08/25 13:34:29;;;;;;;11.15;4.28;;;;;;;;;;4376462;32;316684;-83
2023/08/25 13:36:57;;;;;;;12.37;5.15;;;;;;;;;;4386026;32;317922;-83
2023/08/25 13:39:25;;;;;;;13.05;5.18;;;;;;;;;;4375020;32;317829;-82
2023/08/25 13:41:52;;;;;;;9.23;4.60;;;;;;;;;;4385585;32;317960;-80
2023/08/25 13:44:19;;;;;;;11.73;4.93;;;;;;;;;;4376841;32;316685;-83
2023/08/25 13:46:46;;;;;;;7.47;4.35;;;;;;;;;;4387102;32;318557;-79
2023/08/25 13:49:15;;;;;;;9.48;4.72;;;;;;;;;;4375797;32;316622;-79
2023/08/25 13:51:43;;;;;;;10.43;4.40;;;;;;;;;;4386274;32;321016;-80
2023/08/25 13:54:10;;;;;;;10.90;4.62;;;;;;;;;;4375236;32;317791;-80
2023/08/25 13:56:37;;;;;;;15.07;5.13;;;;;;;;;;4374292;32;318112;-80
2023/08/25 13:59:05;;;;;;;8.60;3.90;;;;;;;;;;4385755;32;317760;-80
2023/08/25 14:01:32;;;;;;;10.40;3.67;;;;;;;;;;4377193;32;316850;-81
2023/08/25 14:04:00;;;;;;;9.57;4.72;;;;;;;;;;4385678;32;318247;-79
2023/08/25 14:06:28;;;;;;;11.25;5.03;;;;;;;;;;4384882;32;316800;-79
2023/08/25 14:08:56;;;;;;;7.25;4.30;;;;;;;;;;4372879;32;417179;-80
2023/08/25 14:11:23;;;;;;;7.07;4.10;;;;;;;;;;4385473;32;316811;-83
2023/08/25 14:13:50;;;;;;;8.85;4.57;;;;;;;;;;4375882;32;317275;-81
2023/08/25 14:16:18;;;;;;;13.65;5.45;;;;;;;;;;4384734;32;316735;-83
2023/08/25 14:18:45;;;;;;;10.68;4.15;;;;;;;;;;4375762;32;318227;-79
2023/08/25 14:21:12;;;;;;;5.35;4.03;;;;;;;;;;4386841;32;317940;-86